Time;durP1;ratioP1;P1;durP2;ratioP2;P2;SDS_P1;SDS_P2;PMS_P1;PMS_P2;Temp;Humidity;BMP_temperature;BMP_pressure;BME280_temperature;BME280_humidity;BME280_pressure;Samples;Min_cycle;Max_cycle;Signal;HPM_P1;HPM_P2
2022/05/31 00:01:34;;;;;;;;;6.00;6.00;;;;;18.25;63.57;100925.25;5036336;28;46708;-77
2022/05/31 00:04:00;;;;;;;;;5.00;5.00;;;;;18.23;63.84;100916.41;5034597;28;45190;-78
2022/05/31 00:06:25;;;;;;;;;5.00;5.00;;;;;18.23;63.62;100927.09;5032616;28;45379;-78
2022/05/31 00:08:52;;;;;;;;;7.00;5.67;;;;;18.22;63.55;100921.78;5031924;28;45567;-77
2022/05/31 00:11:18;;;;;;;;;9.33;6.67;;;;;18.21;63.42;100920.88;5037743;28;46214;-78
2022/05/31 00:13:44;;;;;;;;;8.00;8.00;;;;;18.22;64.00;100921.78;5033462;28;45457;-77
2022/05/31 00:16:10;;;;;;;;;4.33;3.33;;;;;18.22;64.18;100921.78;5035373;28;45350;-77
2022/05/31 00:18:35;;;;;;;;;10.33;6.00;;;;;18.20;64.26;100919.13;5027715;28;45680;-78
2022/05/31 00:21:01;;;;;;;;;7.67;7.00;;;;;18.19;64.37;100914.69;5029916;28;46580;-78
2022/05/31 00:23:27;;;;;;;;;12.33;10.00;;;;;18.21;64.51;100911.97;5036637;28;45470;-77
2022/05/31 00:25:52;;;;;;;;;12.67;11.00;;;;;18.18;64.64;100912.94;5016473;28;46098;-78
2022/05/31 00:28:18;;;;;;;;;17.50;13.25;;;;;18.16;64.71;100914.72;5036380;28;45491;-78
2022/05/31 00:30:43;;;;;;;;;13.00;11.33;;;;;18.17;64.91;100911.19;5032566;28;46346;-77
2022/05/31 00:33:10;;;;;;;;;15.00;12.67;;;;;18.17;65.12;100916.53;5014799;28;45578;-76
2022/05/31 00:35:41;;;;;;;;;13.00;10.33;;;;;18.17;65.01;100916.53;5030660;28;45217;-78
2022/05/31 00:38:07;;;;;;;;;11.67;9.00;;;;;18.16;65.36;100916.53;5032291;28;45301;-78
2022/05/31 00:40:33;;;;;;;;;7.67;6.67;;;;;18.15;65.44;100917.44;5033321;28;45926;-77
2022/05/31 00:43:02;;;;;;;;;9.00;7.33;;;;;18.13;65.67;100913.94;5035962;28;45377;-78
2022/05/31 00:45:43;;;;;;;;;9.33;8.00;;;;;18.13;65.83;100916.59;5034538;28;45423;-77
2022/05/31 00:48:12;;;;;;;;;6.67;6.33;;;;;18.12;65.98;100914.84;5034043;28;45505;-77
2022/05/31 00:50:44;;;;;;;;;7.00;7.00;;;;;18.11;65.91;100910.38;5034170;28;46528;-78
2022/05/31 00:53:19;;;;;;;;;7.00;7.00;;;;;18.10;65.77;100900.63;5032283;28;45261;-77
2022/05/31 00:55:52;;;;;;;;;7.00;5.67;;;;;18.11;65.71;100911.28;5019550;28;45229;-78
2022/05/31 00:58:19;;;;;;;;;6.00;5.00;;;;;18.13;65.80;100911.25;5014136;28;45480;-78
2022/05/31 01:00:45;;;;;;;;;7.00;6.00;;;;;18.11;65.92;100908.63;5035711;28;47399;-78
2022/05/31 01:03:14;;;;;;;;;7.00;5.67;;;;;18.11;65.80;100903.28;5017101;28;45342;-77
2022/05/31 01:05:40;;;;;;;;;6.00;6.00;;;;;18.13;65.63;100908.59;5018568;28;45527;-77
2022/05/31 01:08:05;;;;;;;;;7.00;6.33;;;;;18.12;65.58;100907.72;5031457;28;54505;-77
2022/05/31 01:10:31;;;;;;;;;8.00;5.00;;;;;18.10;65.54;100903.28;5037120;28;45963;-77
2022/05/31 01:12:57;;;;;;;;;4.67;4.67;;;;;18.12;65.85;100907.72;5032855;28;45514;-78
2022/05/31 01:15:22;;;;;;;;;4.00;4.00;;;;;18.11;65.91;100905.94;5029162;28;57357;-78
2022/05/31 01:17:48;;;;;;;;;4.00;4.00;;;;;18.09;65.59;100901.53;5034691;28;45194;-78
2022/05/31 01:20:19;;;;;;;;;4.33;4.00;;;;;18.07;65.55;100912.25;5032761;28;62586;-78
2022/05/31 01:22:52;;;;;;;;;10.00;4.00;;;;;18.05;66.01;100906.03;5011540;28;45559;-77
2022/05/31 01:25:46;;;;;;;;;5.00;4.00;;;;;18.05;66.00;100906.91;5029099;28;45353;-77
2022/05/31 01:28:41;;;;;;;;;5.33;4.00;;;;;18.05;66.10;100911.38;5036971;28;45613;-77
2022/05/31 01:31:17;;;;;;;;;6.00;4.00;;;;;18.04;66.14;100906.94;5030064;28;47392;-78
2022/05/31 01:33:52;;;;;;;;;5.00;5.00;;;;;18.01;66.17;100904.34;5027751;28;45400;-78
2022/05/31 01:36:28;;;;;;;;;5.00;5.00;;;;;17.97;66.24;100899.97;5033022;28;45420;-78
2022/05/31 01:39:01;;;;;;;;;4.33;4.00;;;;;17.93;66.39;100901.81;5036656;28;45510;-77
2022/05/31 01:41:31;;;;;;;;;3.00;3.00;;;;;17.93;66.47;100912.50;5013386;28;46826;-77
2022/05/31 01:43:59;;;;;;;;;4.33;4.00;;;;;17.92;66.55;100905.41;5018287;28;45396;-78
2022/05/31 01:46:31;;;;;;;;;3.67;3.67;;;;;17.92;66.58;100904.50;5033156;28;46739;-77
2022/05/31 01:48:59;;;;;;;;;4.33;4.00;;;;;17.91;66.40;100908.09;5036257;28;45642;-76
2022/05/31 01:51:25;;;;;;;;;5.00;4.00;;;;;17.91;66.35;100902.75;5028794;28;47509;-77
2022/05/31 01:53:53;;;;;;;;;5.00;3.00;;;;;17.90;66.49;100909.91;5032847;28;45275;-77
2022/05/31 01:56:18;;;;;;;;;3.00;3.00;;;;;17.89;66.95;100909.91;4999633;28;45535;-77
2022/05/31 01:58:47;;;;;;;;;4.00;4.00;;;;;17.85;66.80;100909.09;5036198;28;45521;-78
2022/05/31 02:01:13;;;;;;;;;5.00;3.67;;;;;17.84;66.91;100907.31;5024920;28;47560;-78
2022/05/31 02:03:39;;;;;;;;;3.00;3.00;;;;;17.84;67.19;100909.09;5030666;28;53601;-77
2022/05/31 02:06:22;;;;;;;;;3.00;3.00;;;;;17.84;66.77;100901.97;5035068;28;45293;-77
2022/05/31 02:08:48;;;;;;;;;2.00;2.00;;;;;17.84;67.39;100906.44;5030934;28;45502;-77
2022/05/31 02:11:13;;;;;;;;;3.00;3.00;;;;;17.84;67.27;100903.75;5032261;28;47402;-77
2022/05/31 02:13:38;;;;;;;;;3.67;3.67;;;;;17.82;67.27;100903.78;5031709;28;61800;-78
2022/05/31 02:16:04;;;;;;;;;4.00;3.33;;;;;17.81;67.48;100907.38;5035426;28;55721;-77
2022/05/31 02:19:15;;;;;;;;;4.33;3.67;;;;;17.79;67.43;100910.09;5034545;28;45329;-77
2022/05/31 02:21:15;;;;;;;;;3.00;3.00;;;;;17.80;67.54;100917.19;5031741;28;45986;-77
2022/05/31 02:23:40;;;;;;;;;3.00;3.00;;;;;17.79;67.93;100903.88;5027898;28;60338;-78
2022/05/31 02:26:06;;;;;;;;;3.00;3.00;;;;;17.76;68.20;100912.78;5035529;28;53187;-77
2022/05/31 02:28:31;;;;;;;;;5.00;3.00;;;;;17.76;68.06;100915.47;5033151;28;45371;-77
2022/05/31 02:30:56;;;;;;;;;2.67;2.67;;;;;17.75;68.18;100911.03;5035182;28;63186;-77
2022/05/31 02:33:22;;;;;;;;;2.67;2.67;;;;;17.74;68.15;100911.94;5035429;28;61370;-77
2022/05/31 02:35:47;;;;;;;;;4.00;4.00;;;;;17.73;68.39;100912.84;5033798;28;54122;-78
2022/05/31 02:38:13;;;;;;;;;3.67;3.67;;;;;17.74;68.58;100909.28;5034041;28;56002;-78
2022/05/31 02:40:38;;;;;;;;;4.67;4.00;;;;;17.76;68.35;100909.25;5033846;28;46405;-77
2022/05/31 02:43:04;;;;;;;;;4.00;3.67;;;;;17.76;68.46;100914.59;5026881;28;50819;-77
2022/05/31 02:45:29;;;;;;;;;3.67;3.67;;;;;17.73;68.71;100904.81;5031034;28;56878;-77
2022/05/31 02:47:55;;;;;;;;;4.00;3.00;;;;;17.73;68.80;100898.59;5026211;28;50848;-77
2022/05/31 02:50:20;;;;;;;;;5.67;3.33;;;;;17.72;68.79;100907.50;5031898;28;45519;-77
2022/05/31 02:52:46;;;;;;;;;5.00;3.67;;;;;17.69;68.89;100903.09;5034612;28;45468;-78
2022/05/31 02:55:12;;;;;;;;;4.33;4.00;;;;;17.68;68.92;100901.31;5032590;28;45395;-78
2022/05/31 02:57:37;;;;;;;;;3.00;3.00;;;;;17.68;68.96;100912.00;5028399;28;45393;-77
2022/05/31 03:00:04;;;;;;;;;5.33;5.33;;;;;17.65;69.34;100908.53;5029596;28;62317;-77
2022/05/31 03:02:29;;;;;;;;;4.33;4.00;;;;;17.64;69.18;100917.44;5033796;28;47461;-76
2022/05/31 03:04:55;;;;;;;;;3.67;3.67;;;;;17.65;69.37;100916.53;5032256;28;51037;-77
2022/05/31 03:07:20;;;;;;;;;4.00;4.00;;;;;17.65;69.25;100922.75;5023345;28;45205;-77
2022/05/31 03:09:46;;;;;;;;;5.00;5.00;;;;;17.65;69.35;100925.41;5031595;28;54976;-77
2022/05/31 03:12:14;;;;;;;;;4.00;4.00;;;;;17.64;69.34;100917.44;5034577;28;45495;-78
2022/05/31 03:14:53;;;;;;;;;3.00;3.00;;;;;17.64;69.37;100918.31;5017962;28;45304;-78
2022/05/31 03:17:25;;;;;;;;;5.00;3.33;;;;;17.65;69.55;100912.06;5033443;28;45566;-77
2022/05/31 03:20:14;;;;;;;;;4.67;4.00;;;;;17.65;69.30;100911.19;5034120;28;47566;-78
2022/05/31 03:22:45;;;;;;;;;2.00;2.00;;;;;17.64;69.78;100902.28;5029225;28;46855;-77
2022/05/31 03:25:16;;;;;;;;;4.00;4.00;;;;;17.61;69.67;100898.78;5032363;28;45485;-79
2022/05/31 03:27:42;;;;;;;;;4.00;4.00;;;;;17.58;70.27;100897.06;5013612;28;45629;-77
2022/05/31 03:30:08;;;;;;;;;6.00;4.33;;;;;17.53;70.27;100899.81;5019725;28;54883;-77
2022/05/31 03:32:35;;;;;;;;;5.00;4.00;;;;;17.52;70.70;100910.50;5014892;28;45597;-78
2022/05/31 03:35:00;;;;;;;;;4.33;4.00;;;;;17.51;70.77;100911.41;5020951;28;45341;-78
2022/05/31 03:37:25;;;;;;;;;3.00;3.00;;;;;17.49;70.95;100907.88;5035561;28;54158;-78
2022/05/31 03:39:51;;;;;;;;;4.00;3.33;;;;;17.48;70.74;100916.81;5037757;28;62123;-78
2022/05/31 03:42:16;;;;;;;;;4.00;4.00;;;;;17.49;70.83;100905.22;5031156;28;45306;-77
2022/05/31 03:44:41;;;;;;;;;3.00;3.00;;;;;17.49;71.13;100911.44;5038650;28;45453;-77
2022/05/31 03:47:07;;;;;;;;;5.00;4.00;;;;;17.46;71.14;100900.78;5037382;28;47967;-77
2022/05/31 03:49:32;;;;;;;;;5.00;3.00;;;;;17.45;71.24;100909.72;5037671;28;46439;-77
2022/05/31 03:51:58;;;;;;;;;5.00;4.00;;;;;17.43;71.25;100902.66;5027465;28;45312;-78
2022/05/31 03:54:24;;;;;;;;;5.00;5.00;;;;;17.43;71.95;100910.66;5034183;28;45334;-77
2022/05/31 03:56:49;;;;;;;;;4.00;4.00;;;;;17.42;72.47;100904.44;5038207;28;45518;-78
2022/05/31 03:59:14;;;;;;;;;6.33;5.00;;;;;17.43;73.10;100906.19;5035185;28;55696;-78
2022/05/31 04:01:40;;;;;;;;;7.00;5.67;;;;;17.45;74.37;100906.16;5037012;28;56061;-77
2022/05/31 04:04:05;;;;;;;;;10.33;6.00;;;;;17.45;74.54;100908.84;5036647;28;51538;-78
2022/05/31 04:06:31;;;;;;;;;6.00;6.00;;;;;17.45;75.34;100907.03;5033595;28;45553;-77
2022/05/31 04:08:57;;;;;;;;;7.00;7.00;;;;;17.45;76.16;100906.16;5034491;28;46349;-77
2022/05/31 04:11:24;;;;;;;;;7.00;7.00;;;;;17.45;76.60;100901.72;5036994;28;45468;-77
2022/05/31 04:13:49;;;;;;;;;7.00;4.33;;;;;17.45;76.82;100912.38;5037887;28;45411;-77
2022/05/31 04:16:17;;;;;;;;;7.00;7.00;;;;;17.45;77.15;100909.72;5037079;28;45502;-77
2022/05/31 04:18:42;;;;;;;;;8.00;6.33;;;;;17.47;76.69;100901.66;5031247;28;46547;-78
2022/05/31 04:21:10;;;;;;;;;7.00;6.00;;;;;17.44;77.01;100902.63;5038138;28;45435;-77
2022/05/31 04:26:20;;;;;;;;;9.00;6.00;;;;;17.42;77.54;100909.78;5037075;28;45457;-77
2022/05/31 04:28:46;;;;;;;;;7.33;6.00;;;;;17.41;78.28;100909.78;5034590;28;47504;-78
2022/05/31 04:31:12;;;;;;;;;9.33;6.00;;;;;17.40;78.52;100913.38;5032255;28;45509;-79
2022/05/31 04:33:37;;;;;;;;;7.00;7.00;;;;;17.40;78.06;100908.03;5037018;28;58597;-77
2022/05/31 04:36:12;;;;;;;;;6.00;5.00;;;;;17.41;78.00;100907.13;5017463;28;45595;-73
2022/05/31 04:38:38;;;;;;;;;5.33;5.33;;;;;17.40;78.24;100906.25;5036397;28;45811;-76
2022/05/31 04:41:04;;;;;;;;;4.67;4.67;;;;;17.39;77.81;100914.28;5037324;28;45437;-75
2022/05/31 04:43:29;;;;;;;;;6.67;5.33;;;;;17.39;77.92;100914.28;5032056;28;45511;-76
2022/05/31 04:45:55;;;;;;;;;5.00;5.00;;;;;17.39;78.09;100914.28;5035258;28;45395;-73
2022/05/31 04:48:20;;;;;;;;;5.00;5.00;;;;;17.38;78.13;100908.06;5033801;28;60949;-73
2022/05/31 04:50:46;;;;;;;;;6.00;5.00;;;;;17.37;77.95;100910.75;5035936;28;45456;-76
2022/05/31 04:53:11;;;;;;;;;9.33;7.00;;;;;17.37;77.87;100908.97;5033915;28;47132;-76
2022/05/31 04:55:37;;;;;;;;;7.33;6.00;;;;;17.37;78.25;100914.31;5035550;28;49753;-74
2022/05/31 04:58:02;;;;;;;;;7.33;7.33;;;;;17.38;78.40;100910.72;5034809;28;46424;-76
2022/05/31 05:00:28;;;;;;;;;7.00;5.33;;;;;17.38;78.42;100909.84;5036719;28;45378;-76
2022/05/31 05:02:53;;;;;;;;;8.00;6.00;;;;;17.40;78.62;100910.69;5032033;28;46021;-77
2022/05/31 05:05:18;;;;;;;;;7.33;5.00;;;;;17.41;78.76;100917.78;5029797;28;54588;-78
2022/05/31 05:07:44;;;;;;;;;6.33;5.00;;;;;17.44;78.91;100928.44;5031429;28;60341;-78
2022/05/31 05:10:10;;;;;;;;;8.67;6.67;;;;;17.47;79.07;100936.38;5035603;28;45456;-79
2022/05/31 05:12:36;;;;;;;;;5.67;5.67;;;;;17.48;79.37;100924.81;5028320;28;46668;-78
2022/05/31 05:15:03;;;;;;;;;8.33;7.00;;;;;17.52;79.10;100942.53;5030780;28;45483;-79
2022/05/31 05:17:28;;;;;;;;;7.00;7.00;;;;;17.52;79.26;100935.44;5035044;28;47731;-79
2022/05/31 05:19:53;;;;;;;;;6.33;6.33;;;;;17.50;79.08;100923.00;5034813;28;60249;-79
2022/05/31 05:22:19;;;;;;;;;7.67;6.00;;;;;17.49;78.80;100924.78;5020934;28;45511;-80
2022/05/31 05:24:44;;;;;;;;;6.00;6.00;;;;;17.47;78.38;100925.69;5017171;28;46668;-82
2022/05/31 05:27:09;;;;;;;;;5.00;5.00;;;;;17.44;78.62;100925.75;5005634;28;47021;-81
2022/05/31 05:32:19;;;;;;;;;7.67;4.67;;;;;17.47;78.95;100934.63;5026434;28;45432;-80
2022/05/31 05:34:52;;;;;;;;;5.00;5.00;;;;;17.50;78.95;100939.00;5028033;28;45391;-80
2022/05/31 05:37:17;;;;;;;;;8.67;3.67;;;;;17.52;78.87;100935.44;5033160;28;47617;-81
2022/05/31 05:39:44;;;;;;;;;7.33;6.00;;;;;17.54;79.59;100936.28;5035105;28;46215;-73
2022/05/31 05:42:09;;;;;;;;;7.67;6.00;;;;;17.49;79.84;100930.13;5028628;28;45628;-73
2022/05/31 05:44:34;;;;;;;;;6.33;6.33;;;;;17.43;80.82;100937.34;5016711;28;45417;-73
2022/05/31 05:47:04;;;;;;;;;7.00;6.00;;;;;17.34;80.09;100942.81;5027813;28;57118;-73
2022/05/31 05:49:30;;;;;;;;;7.00;6.00;;;;;17.25;80.75;100946.50;5026620;28;45484;-74
2022/05/31 05:51:59;;;;;;;;;8.00;6.33;;;;;17.18;81.88;100953.72;5031531;28;46222;-73
2022/05/31 05:54:24;;;;;;;;;8.33;5.00;;;;;17.12;82.12;100948.47;5032735;28;45629;-73
2022/05/31 05:56:49;;;;;;;;;8.67;7.00;;;;;17.06;82.80;100953.91;5024362;28;45565;-72
2022/05/31 05:59:15;;;;;;;;;6.67;5.00;;;;;17.03;83.80;100961.94;5030182;28;46579;-73
2022/05/31 06:01:45;;;;;;;;;6.67;5.67;;;;;17.00;83.96;100957.53;5032233;28;53700;-73
2022/05/31 06:04:11;;;;;;;;;8.00;7.67;;;;;16.98;83.45;100955.78;5033861;28;45514;-74
2022/05/31 06:06:39;;;;;;;;;8.00;7.00;;;;;16.96;83.31;100960.25;5032474;28;45885;-75
2022/05/31 06:09:08;;;;;;;;;7.00;6.00;;;;;16.93;83.32;100961.16;5016401;28;45684;-75
2022/05/31 06:11:41;;;;;;;;;6.33;5.00;;;;;16.89;83.76;100958.59;5012245;28;45417;-73
2022/05/31 06:14:14;;;;;;;;;6.33;6.33;;;;;16.82;84.94;100962.22;5029291;28;45502;-74
2022/05/31 06:16:44;;;;;;;;;7.67;6.00;;;;;16.74;85.11;100962.31;5024251;28;46762;-74
2022/05/31 06:19:18;;;;;;;;;6.00;6.00;;;;;16.67;85.37;100966.81;5007713;28;45447;-75
2022/05/31 06:21:44;;;;;;;;;8.00;6.00;;;;;16.62;85.65;100974.00;5032546;28;45527;-73
2022/05/31 06:24:10;;;;;;;;;9.67;7.00;;;;;16.60;86.79;100964.22;5031261;28;45297;-74
2022/05/31 06:26:35;;;;;;;;;11.00;7.33;;;;;16.59;86.13;100967.78;5011386;28;45822;-73
2022/05/31 06:29:00;;;;;;;;;7.67;7.67;;;;;16.61;86.52;100973.97;5031714;28;55795;-75
2022/05/31 06:31:26;;;;;;;;;7.67;7.67;;;;;16.66;88.04;100973.03;5027011;28;45833;-76
2022/05/31 06:33:51;;;;;;;;;9.00;6.33;;;;;16.73;88.15;100976.56;5025397;28;52013;-74
2022/05/31 06:36:16;;;;;;;;;7.00;7.00;;;;;16.81;86.50;100981.78;5029804;28;63887;-76
2022/05/31 06:38:42;;;;;;;;;9.00;6.00;;;;;16.86;86.36;100975.50;5029555;28;45503;-76
2022/05/31 06:41:07;;;;;;;;;9.00;7.67;;;;;16.91;86.93;100976.31;5025000;28;45339;-76
2022/05/31 06:43:34;;;;;;;;;7.00;7.00;;;;;16.97;88.38;100978.91;5029003;28;51931;-76
2022/05/31 06:46:07;;;;;;;;;6.00;6.00;;;;;17.01;86.36;100979.75;5030868;28;46316;-76
2022/05/31 06:48:33;;;;;;;;;8.67;8.00;;;;;17.03;86.44;100973.47;5031147;28;45541;-76
2022/05/31 06:51:03;;;;;;;;;6.00;6.00;;;;;17.03;87.80;100976.16;5027585;28;45551;-77
2022/05/31 06:58:56;;;;;;;;;9.67;8.00;;;;;17.06;90.02;100977.91;5023910;28;45337;-73
2022/05/31 07:01:30;;;;;;;;;5.00;5.00;;;;;17.06;87.93;100963.69;5028915;28;45487;-73
2022/05/31 07:03:55;;;;;;;;;6.67;6.00;;;;;17.04;86.91;100969.03;5033925;28;45447;-75
2022/05/31 07:06:20;;;;;;;;;5.67;5.67;;;;;17.05;86.00;100975.28;5032186;28;63621;-73
2022/05/31 07:08:46;;;;;;;;;7.00;6.00;;;;;17.06;85.16;100972.56;5029759;28;60110;-74
2022/05/31 07:11:11;;;;;;;;;4.33;4.33;;;;;17.11;84.59;100972.53;5032881;28;55085;-73
2022/05/31 07:13:37;;;;;;;;;7.33;5.00;;;;;17.12;84.08;100969.81;5025063;28;45448;-74
2022/05/31 07:16:02;;;;;;;;;5.00;5.00;;;;;17.13;83.53;100974.25;5023287;28;62457;-75
2022/05/31 07:18:28;;;;;;;;;4.00;4.00;;;;;17.12;82.04;100967.16;5030723;28;45387;-76
2022/05/31 07:20:55;;;;;;;;;5.67;5.00;;;;;17.19;82.30;100978.63;5029222;28;45597;-79
2022/05/31 07:23:21;;;;;;;;;6.00;6.00;;;;;17.28;82.09;100982.03;5007806;28;45516;-79
2022/05/31 07:25:46;;;;;;;;;8.00;6.67;;;;;17.41;81.73;100984.53;5031881;28;46500;-80
2022/05/31 07:28:11;;;;;;;;;7.33;5.00;;;;;17.52;81.62;100970.13;5029012;28;62022;-79
2022/05/31 07:30:37;;;;;;;;;6.33;6.00;;;;;17.66;81.15;100966.34;5032250;28;45695;-80
2022/05/31 07:33:02;;;;;;;;;5.00;5.00;;;;;17.74;80.72;100973.38;5031217;28;45319;-77
2022/05/31 07:35:29;;;;;;;;;5.33;5.33;;;;;17.82;79.37;100970.56;5028737;28;46604;-77
2022/05/31 07:37:54;;;;;;;;;5.00;5.00;;;;;17.86;77.73;100980.31;5029393;28;45456;-78
2022/05/31 07:40:20;;;;;;;;;6.00;5.00;;;;;17.92;77.83;100979.31;5025232;28;45436;-77
2022/05/31 07:42:45;;;;;;;;;4.67;4.67;;;;;17.95;77.35;100980.16;5030507;28;45526;-78
2022/05/31 07:45:11;;;;;;;;;6.00;6.00;;;;;17.98;76.63;100976.53;5023401;28;61841;-76
2022/05/31 07:47:37;;;;;;;;;5.67;4.00;;;;;18.02;75.65;100973.78;5007142;28;45583;-77
2022/05/31 07:50:02;;;;;;;;;6.00;4.00;;;;;18.06;75.53;100972.84;5029087;28;52478;-78
2022/05/31 07:52:28;;;;;;;;;4.00;4.00;;;;;18.14;75.69;100980.69;5031122;28;45688;-78
2022/05/31 07:54:53;;;;;;;;;4.33;4.00;;;;;18.24;75.43;100976.97;5030696;28;58906;-78
2022/05/31 08:00:04;;;;;;;;;5.33;5.00;;;;;18.41;74.48;100975.75;5017402;28;45436;-77
2022/05/31 08:02:29;;;;;;;;;6.00;4.00;;;;;18.48;74.37;100980.97;5025138;28;45350;-79
2022/05/31 08:04:54;;;;;;;;;4.67;4.67;;;;;18.56;74.18;100980.81;5028310;28;61745;-78
2022/05/31 08:07:20;;;;;;;;;5.00;5.00;;;;;18.63;73.16;100984.25;5023119;28;45601;-77
2022/05/31 08:09:46;;;;;;;;;5.00;4.00;;;;;18.66;73.09;100981.53;5026502;28;48719;-78
2022/05/31 08:12:12;;;;;;;;;2.00;2.00;;;;;18.67;72.50;100973.47;5034118;28;53473;-77
2022/05/31 08:14:37;;;;;;;;;5.67;4.33;;;;;18.70;72.78;100975.25;5029103;28;47635;-78
2022/05/31 08:17:03;;;;;;;;;3.67;3.67;;;;;18.70;72.28;100976.13;5030228;28;59439;-78
2022/05/31 08:19:30;;;;;;;;;6.00;3.67;;;;;18.71;72.23;100968.97;5028966;28;45629;-79
2022/05/31 08:21:56;;;;;;;;;3.00;3.00;;;;;18.68;71.06;100977.94;5035559;28;45558;-78
2022/05/31 08:24:22;;;;;;;;;5.33;2.67;;;;;18.68;71.89;100972.56;5033060;28;46581;-78
2022/05/31 08:26:47;;;;;;;;;4.33;3.33;;;;;18.68;71.77;100967.22;5013065;28;45523;-78
2022/05/31 08:29:12;;;;;;;;;6.00;3.33;;;;;18.70;71.85;100970.78;5025710;28;54777;-81
2022/05/31 08:31:38;;;;;;;;;5.33;4.00;;;;;18.72;71.39;100970.72;5032792;28;51677;-80
2022/05/31 08:34:07;;;;;;;;;6.00;3.67;;;;;18.76;71.63;100973.31;5039198;28;46265;-78
2022/05/31 08:36:35;;;;;;;;;2.33;2.33;;;;;18.80;71.97;100975.03;5033692;28;45474;-77
2022/05/31 08:39:01;;;;;;;;;2.33;2.33;;;;;18.84;71.38;100965.13;5035261;28;45558;-78
2022/05/31 08:41:44;;;;;;;;;4.33;3.67;;;;;18.88;71.25;100966.81;5031825;28;45606;-77
2022/05/31 08:44:18;;;;;;;;;4.33;3.00;;;;;18.92;70.73;100965.84;5031897;28;47213;-78
2022/05/31 08:47:14;;;;;;;;;3.00;3.00;;;;;18.95;70.08;100965.78;5033656;28;45467;-77
2022/05/31 08:52:42;;;;;;;;;4.00;2.67;;;;;19.03;69.72;100968.28;5030604;28;45701;-78
2022/05/31 08:58:05;;;;;;;;;2.00;2.00;;;;;19.07;68.43;100972.69;5030189;28;45209;-79
2022/05/31 09:00:35;;;;;;;;;4.00;2.33;;;;;19.10;69.57;100967.25;5029436;28;45375;-75
2022/05/31 09:05:41;;;;;;;;;2.67;2.67;;;;;19.20;67.51;100965.25;5037558;23;45509;-75
2022/05/31 09:08:29;;;;;;;;;3.33;3.33;;;;;19.25;67.87;100960.66;5035117;28;45507;-76
2022/05/31 09:11:12;;;;;;;;;4.33;3.33;;;;;19.28;68.63;100968.63;5034410;28;45309;-77
2022/05/31 09:13:55;;;;;;;;;3.00;3.00;;;;;19.34;68.49;100974.75;5033366;28;45600;-77
2022/05/31 09:16:34;;;;;;;;;5.00;4.00;;;;;19.38;68.82;100967.50;5018294;28;46459;-77
2022/05/31 09:19:04;;;;;;;;;4.00;2.33;;;;;19.43;65.46;100970.94;5015289;28;45532;-77
2022/05/31 09:21:38;;;;;;;;;3.00;3.00;;;;;19.46;64.97;100973.56;5021762;28;45460;-77
2022/05/31 09:24:04;;;;;;;;;3.67;2.67;;;;;19.51;63.27;100978.81;5031011;28;45578;-77
2022/05/31 09:26:51;;;;;;;;;1.67;1.67;;;;;19.54;62.55;100976.94;5014283;28;47555;-76
2022/05/31 09:29:21;;;;;;;;;4.00;3.00;;;;;19.56;61.69;100972.44;5034496;28;45424;-79
2022/05/31 09:32:09;;;;;;;;;4.67;2.33;;;;;19.61;61.93;100973.25;5017361;28;45520;-77
2022/05/31 09:34:43;;;;;;;;;1.67;1.67;;;;;19.67;62.12;100976.69;5032998;28;45554;-78
2022/05/31 09:37:29;;;;;;;;;4.00;3.00;;;;;19.73;61.31;100971.19;5032497;28;47499;-77
2022/05/31 09:39:58;;;;;;;;;2.00;2.00;;;;;19.83;60.89;100972.72;5033578;28;45507;-77
2022/05/31 09:42:29;;;;;;;;;3.00;3.00;;;;;19.93;61.04;100971.56;5032699;28;46843;-77
2022/05/31 09:45:09;;;;;;;;;4.33;3.00;;;;;20.05;61.22;100968.56;5030495;28;45553;-76
2022/05/31 09:47:35;;;;;;;;;3.00;3.00;;;;;20.17;60.36;100969.16;5032178;28;47659;-78
2022/05/31 09:50:00;;;;;;;;;2.00;2.00;;;;;20.28;60.07;100956.34;5035441;28;45518;-78
2022/05/31 09:52:36;;;;;;;;;3.67;2.00;;;;;20.49;59.68;100966.50;5034259;28;56408;-78
2022/05/31 09:58:09;;;;;;;;;2.67;2.00;;;;;20.93;58.83;100943.78;5032349;28;45515;-78
2022/05/31 10:00:55;;;;;;;;;5.00;2.33;;;;;21.06;56.40;100954.16;5032782;28;45483;-77
2022/05/31 10:03:20;;;;;;;;;2.67;2.00;;;;;21.13;58.32;100948.53;5030146;28;45451;-76
2022/05/31 10:05:46;;;;;;;;;2.00;2.00;;;;;21.20;56.97;100951.91;5030834;28;52183;-78
2022/05/31 10:08:15;;;;;;;;;2.00;2.00;;;;;21.29;56.21;100956.97;5027089;28;47324;-78
2022/05/31 10:10:47;;;;;;;;;2.00;2.00;;;;;21.36;55.03;100958.59;5032532;28;45477;-79
2022/05/31 10:13:13;;;;;;;;;4.00;3.00;;;;;21.39;55.57;100961.19;5032484;28;45278;-78
2022/05/31 10:15:44;;;;;;;;;2.00;2.00;;;;;21.33;53.54;100963.19;5038475;28;45638;-78
2022/05/31 10:18:25;;;;;;;;;2.00;2.00;;;;;21.28;54.27;100957.03;5008370;28;46419;-78
2022/05/31 10:21:01;;;;;;;;;2.00;2.00;;;;;21.26;53.62;100967.84;5028793;28;46958;-79
2022/05/31 10:23:40;;;;;;;;;2.00;2.00;;;;;21.25;51.94;100958.00;5031094;28;45312;-78
2022/05/31 10:26:06;;;;;;;;;1.33;1.33;;;;;21.21;50.57;100964.41;5010272;28;45586;-77
2022/05/31 10:28:42;;;;;;;;;2.00;2.00;;;;;21.18;50.01;100960.00;5031389;28;45580;-78
2022/05/31 10:31:30;;;;;;;;;1.00;1.00;;;;;21.19;50.59;100964.44;5034123;28;45479;-79
2022/05/31 10:33:58;;;;;;;;;2.33;1.33;;;;;21.20;48.70;100959.97;5031234;28;45412;-78
2022/05/31 10:36:26;;;;;;;;;1.00;1.00;;;;;21.20;48.72;100954.59;5032986;28;45731;-79
2022/05/31 10:38:52;;;;;;;;;1.67;1.67;;;;;21.18;48.60;100962.69;5030735;28;47243;-76
2022/05/31 10:41:21;;;;;;;;;2.00;2.00;;;;;21.18;49.31;100965.38;5013194;28;45552;-79
2022/05/31 10:43:50;;;;;;;;;3.00;3.00;;;;;21.17;50.09;100954.69;5029346;28;45764;-78
2022/05/31 10:46:23;;;;;;;;;5.00;3.00;;;;;21.16;49.97;100961.00;5032996;28;45487;-78
2022/05/31 10:48:51;;;;;;;;;3.00;2.00;;;;;21.15;49.54;100954.75;5030574;28;46597;-77
2022/05/31 10:51:38;;;;;;;;;3.00;2.00;;;;;21.21;50.15;100955.47;5017148;28;45452;-77
2022/05/31 10:54:31;;;;;;;;;4.33;1.33;;;;;21.29;48.35;100961.47;5026606;28;45925;-78
2022/05/31 10:57:10;;;;;;;;;1.00;1.00;;;;;21.42;48.11;100952.16;5034170;28;45459;-78
2022/05/31 10:59:38;;;;;;;;;3.00;2.00;;;;;21.56;47.27;100951.69;5015399;28;46462;-79
2022/05/31 11:02:35;;;;;;;;;1.33;1.33;;;;;21.69;45.42;100947.69;5033590;28;45388;-78
2022/05/31 11:05:16;;;;;;;;;2.00;1.00;;;;;21.82;45.88;100945.47;5033695;28;45549;-78
2022/05/31 11:13:59;;;;;;;;;2.67;2.33;;;;;22.44;43.72;100951.38;5015682;28;45474;-78
2022/05/31 11:16:47;;;;;;;;;2.00;2.00;;;;;22.50;44.91;100950.28;5017426;28;45498;-77
2022/05/31 11:19:25;;;;;;;;;2.67;1.00;;;;;22.49;43.71;100953.91;5018012;28;45366;-78
2022/05/31 11:22:21;;;;;;;;;2.00;2.00;;;;;22.44;44.31;100929.84;5032220;28;47417;-78
2022/05/31 11:24:49;;;;;;;;;3.00;2.00;;;;;22.45;44.55;100961.19;5015783;28;45468;-78
2022/05/31 11:27:18;;;;;;;;;1.33;1.00;;;;;22.49;44.22;100953.91;5034384;28;45590;-78
2022/05/31 11:30:03;;;;;;;;;3.00;1.00;;;;;22.52;44.30;100947.50;5030474;28;45603;-78
2022/05/31 11:32:49;;;;;;;;;3.33;2.00;;;;;22.48;43.44;100953.03;5028285;28;45577;-79
2022/05/31 11:35:22;;;;;;;;;3.33;2.00;;;;;22.36;41.58;100958.81;5032795;28;45903;-78
2022/05/31 11:38:03;;;;;;;;;2.00;2.00;;;;;22.27;42.45;100951.09;5032919;28;45384;-78
2022/05/31 11:40:45;;;;;;;;;1.00;1.00;;;;;22.18;42.18;100956.81;5011114;28;45574;-80
2022/05/31 11:43:29;;;;;;;;;3.00;2.00;;;;;22.25;42.11;100961.03;5030706;28;46625;-77
2022/05/31 11:46:17;;;;;;;;;1.00;1.00;;;;;22.41;41.33;100959.53;5035163;28;46123;-79
2022/05/31 11:49:01;;;;;;;;;1.00;1.00;;;;;22.61;40.81;100961.50;5033934;28;45516;-79
2022/05/31 11:51:54;;;;;;;;;1.33;1.33;;;;;22.74;38.72;100959.22;5035341;28;45447;-77
2022/05/31 11:54:37;;;;;;;;;1.00;1.00;;;;;22.94;40.79;100956.72;5037432;28;47497;-78
2022/05/31 11:57:08;;;;;;;;;1.67;1.00;;;;;23.12;41.16;100954.25;5029564;28;46260;-78
2022/05/31 11:59:58;;;;;;;;;1.33;1.33;;;;;23.34;41.00;100965.06;5027577;28;45568;-81
2022/05/31 12:02:37;;;;;;;;;2.00;1.00;;;;;23.60;40.89;100964.03;5031034;28;46806;-79
2022/05/31 12:05:18;;;;;;;;;3.00;1.00;;;;;23.76;40.78;100947.19;5032861;28;46591;-79
2022/05/31 12:07:51;;;;;;;;;1.00;1.00;;;;;23.79;40.09;100954.25;5018628;28;45473;-80